Terminal Aerodrome Forecast
Issued by NWS

Home | Current Version | Previous Version | Text Only | Print | Product List | Glossary On
Versions: 1 2 3 4 5 6 7 8 9 10 11 12 13 14 15 16 17 18 19 20
242
FTUS46 KSEW 291733
TAFCLM
TAF
KCLM 291733Z 2918/3018 00000KT P6SM OVC007
      TEMPO 2918/2921 4SM -SHRA OVC007
     FM292100 29010KT P6SM OVC015
     FM300000 29015KT P6SM SCT015 BKN035
     FM300600 27014KT P6SM VCSH OVC025=

USA.gov is the U.S. government's official web portal to all federal, state and local government web resources and services.